createdAt,value
2022-10-18T00:01:27.236Z,15.45
2022-10-18T00:03:29.558Z,15.20
2022-10-18T00:05:31.796Z,15.73
2022-10-18T00:09:39.479Z,13.75
2022-10-18T00:11:42.865Z,15.13
2022-10-18T00:13:45.116Z,17.25
2022-10-18T00:16:03.837Z,14.20
2022-10-18T00:18:11.162Z,16.60
2022-10-18T00:20:14.747Z,15.13
2022-10-18T00:22:16.969Z,15.43
2022-10-18T00:24:19.118Z,15.13
2022-10-18T00:26:27.596Z,14.60
2022-10-18T00:28:30.280Z,16.00
2022-10-18T00:30:32.472Z,14.15
2022-10-18T00:32:39.261Z,14.48
2022-10-18T00:34:41.564Z,14.65
2022-10-18T00:36:44.401Z,15.07
2022-10-18T00:38:49.787Z,15.38
2022-10-18T00:40:52.265Z,14.00
2022-10-18T00:42:54.474Z,14.48
2022-10-18T00:45:13.805Z,14.75
2022-10-18T00:47:18.166Z,14.63
2022-10-18T00:49:33.378Z,15.05
2022-10-18T00:51:45.105Z,13.88
2022-10-18T00:53:48.408Z,12.88
2022-10-18T00:55:51.222Z,13.13
2022-10-18T01:00:02.642Z,14.73
2022-10-18T01:02:07.234Z,12.38
2022-10-18T01:04:09.655Z,12.32
2022-10-18T01:06:12.052Z,11.85
2022-10-18T01:08:17.280Z,11.50
2022-10-18T01:10:41.345Z,11.05
2022-10-18T01:12:55.701Z,13.07
2022-10-18T01:15:10.646Z,11.10
2022-10-18T01:17:30.982Z,12.23
2022-10-18T01:19:51.653Z,11.85
2022-10-18T01:22:06.111Z,10.57
2022-10-18T01:24:31.029Z,12.05
2022-10-18T01:26:48.257Z,12.57
2022-10-18T01:29:11.148Z,11.05
2022-10-18T01:31:26.063Z,11.57
2022-10-18T01:33:56.841Z,12.00
2022-10-18T01:36:18.462Z,11.30
2022-10-18T01:38:23.500Z,12.13
2022-10-18T01:40:25.838Z,11.48
2022-10-18T01:44:33.096Z,12.30
2022-10-18T01:46:36.409Z,11.68
2022-10-18T01:48:38.756Z,11.73
2022-10-18T01:50:40.882Z,11.32
2022-10-18T01:52:52.621Z,11.77
2022-10-18T01:54:56.093Z,12.40
2022-10-18T01:57:00.324Z,11.13
2022-10-18T01:59:16.557Z,11.90
2022-10-18T02:01:25.840Z,12.57
2022-10-18T02:03:29.751Z,12.50
2022-10-18T02:06:21.382Z,11.73
2022-10-18T02:08:47.182Z,11.18
2022-10-18T02:10:54.848Z,10.93
2022-10-18T02:13:00.169Z,11.43
2022-10-18T02:15:05.328Z,11.30
2022-10-18T02:17:11.199Z,11.38
2022-10-18T02:19:20.051Z,11.45
2022-10-18T02:21:25.157Z,9.73
2022-10-18T02:23:27.934Z,11.27
2022-10-18T02:25:32.776Z,10.50
2022-10-18T02:27:35.893Z,11.05
2022-10-18T02:31:54.198Z,10.52
2022-10-18T02:34:02.747Z,11.40
2022-10-18T02:36:17.112Z,9.68
2022-10-18T02:38:21.193Z,10.75
2022-10-18T02:40:24.783Z,11.73
2022-10-18T02:42:34.533Z,10.23
2022-10-18T02:44:38.195Z,10.55
2022-10-18T02:46:40.732Z,11.55
2022-10-18T02:48:42.773Z,11.05
2022-10-18T02:50:44.779Z,9.63
2022-10-18T02:52:46.945Z,9.80
2022-10-18T02:54:48.975Z,10.40
2022-10-18T02:56:51.213Z,10.43
2022-10-18T02:58:53.248Z,10.38
2022-10-18T03:00:56.789Z,11.70
2022-10-18T03:03:01.603Z,10.90
2022-10-18T03:05:03.917Z,11.45
2022-10-18T03:09:10.769Z,10.63
2022-10-18T03:11:13.328Z,10.85
2022-10-18T03:13:15.677Z,11.43
2022-10-18T03:15:17.920Z,10.48
2022-10-18T03:17:20.130Z,10.73
2022-10-18T03:19:22.346Z,11.38
2022-10-18T03:21:24.397Z,11.50
2022-10-18T03:23:26.587Z,11.32
2022-10-18T03:25:32.158Z,12.23
2022-10-18T03:27:34.507Z,11.50
2022-10-18T03:31:38.815Z,11.00
2022-10-18T03:33:40.977Z,11.45
2022-10-18T03:35:43.646Z,10.65
2022-10-18T03:37:46.133Z,10.32
2022-10-18T03:41:50.725Z,11.50
2022-10-18T03:43:52.821Z,10.65
2022-10-18T03:45:54.971Z,11.60
2022-10-18T03:47:57.411Z,10.77
2022-10-18T03:49:59.969Z,11.05
2022-10-18T03:52:02.187Z,11.82
2022-10-18T03:56:06.585Z,12.75
2022-10-18T04:00:11.367Z,12.10
2022-10-18T04:02:16.297Z,12.25
2022-10-18T04:04:18.867Z,11.88
2022-10-18T04:06:21.254Z,12.75
2022-10-18T04:08:23.458Z,12.50
2022-10-18T04:10:26.142Z,13.05
2022-10-18T04:12:31.251Z,13.13
2022-10-18T04:14:33.852Z,12.45
2022-10-18T04:18:43.290Z,12.18
2022-10-18T04:20:45.464Z,13.45
2022-10-18T04:22:48.961Z,13.02
2022-10-18T04:24:53.435Z,12.60
2022-10-18T04:26:55.489Z,13.18
2022-10-18T04:28:57.720Z,13.13
2022-10-18T04:31:00.015Z,11.43
2022-10-18T04:35:05.203Z,12.93
2022-10-18T04:37:07.302Z,13.05
2022-10-18T04:39:09.390Z,12.45
2022-10-18T04:41:11.712Z,12.75
2022-10-18T04:43:13.915Z,12.38
2022-10-18T04:45:17.378Z,13.18
2022-10-18T04:47:19.530Z,11.80
2022-10-18T04:49:21.769Z,11.98
2022-10-18T04:51:24.150Z,11.85
2022-10-18T04:55:56.196Z,12.75
2022-10-18T04:58:22.758Z,11.60
2022-10-18T05:02:27.053Z,12.53
2022-10-18T05:04:32.141Z,12.00
2022-10-18T05:06:34.209Z,11.88
2022-10-18T05:09:10.206Z,11.90
2022-10-18T05:11:12.482Z,11.90
2022-10-18T05:13:14.496Z,11.55
2022-10-18T05:15:16.711Z,11.52
2022-10-18T05:17:18.798Z,12.48
2022-10-18T05:19:23.659Z,13.45
2022-10-18T05:21:26.261Z,12.07
2022-10-18T05:23:28.503Z,13.20
2022-10-18T05:25:32.865Z,12.45
2022-10-18T05:27:35.000Z,11.90
2022-10-18T05:29:37.761Z,13.00
2022-10-18T05:31:39.876Z,13.57
2022-10-18T05:33:44.806Z,13.68
2022-10-18T05:35:47.113Z,13.82
2022-10-18T05:37:49.336Z,13.32
2022-10-18T05:39:51.353Z,13.82
2022-10-18T05:41:53.992Z,12.73
2022-10-18T05:43:56.221Z,13.23
2022-10-18T05:45:58.503Z,12.13
2022-10-18T05:48:01.343Z,12.73
2022-10-18T05:50:03.786Z,13.35
2022-10-18T05:52:06.104Z,11.68
2022-10-18T05:56:12.118Z,11.52
2022-10-18T05:58:14.407Z,11.95
2022-10-18T06:00:18.140Z,12.15
2022-10-18T06:02:20.291Z,12.30
2022-10-18T06:04:22.651Z,12.32
2022-10-18T06:06:24.722Z,10.48
2022-10-18T06:08:27.074Z,12.68
2022-10-18T06:10:29.158Z,11.50
2022-10-18T06:12:33.753Z,12.63
2022-10-18T06:14:39.481Z,11.38
2022-10-18T06:16:41.604Z,11.75
2022-10-18T06:18:43.951Z,10.75
2022-10-18T06:22:47.947Z,11.00
2022-10-18T06:24:53.750Z,12.68
2022-10-18T06:26:58.777Z,12.73
2022-10-18T06:29:00.977Z,11.15
2022-10-18T06:31:05.248Z,12.32
2022-10-18T06:33:07.485Z,13.05
2022-10-18T06:35:09.799Z,12.77
2022-10-18T06:37:12.236Z,11.38
2022-10-18T06:41:18.233Z,13.07
2022-10-18T06:43:21.650Z,11.90
2022-10-18T06:45:23.956Z,12.38
2022-10-18T06:47:26.128Z,11.73
2022-10-18T06:49:28.443Z,11.55
2022-10-18T06:51:30.487Z,12.27
2022-10-18T06:53:43.697Z,11.90
2022-10-18T06:55:53.381Z,13.35
2022-10-18T06:57:55.475Z,12.23
2022-10-18T06:59:57.886Z,12.23
2022-10-18T07:04:02.142Z,13.13
2022-10-18T07:06:06.347Z,11.98
2022-10-18T07:08:08.406Z,13.50
2022-10-18T07:10:13.029Z,13.05
2022-10-18T07:12:17.873Z,12.05
2022-10-18T07:14:19.927Z,12.73
2022-10-18T07:16:22.179Z,11.98
2022-10-18T07:20:27.531Z,12.88
2022-10-18T07:22:30.481Z,11.90
2022-10-18T07:26:40.049Z,12.88
2022-10-18T07:28:44.024Z,12.18
2022-10-18T07:30:46.157Z,11.57
2022-10-18T07:32:48.310Z,12.27
2022-10-18T07:34:50.431Z,11.93
2022-10-18T07:36:54.778Z,12.35
2022-10-18T07:38:57.243Z,11.75
2022-10-18T07:41:06.448Z,12.77
2022-10-18T07:43:12.000Z,12.10
2022-10-18T07:45:14.499Z,11.85
2022-10-18T07:49:18.901Z,13.30
2022-10-18T07:51:21.827Z,12.98
2022-10-18T07:53:24.500Z,13.73
2022-10-18T07:55:26.669Z,13.65
2022-10-18T07:57:28.826Z,12.13
2022-10-18T08:01:34.600Z,12.02
2022-10-18T08:06:03.656Z,12.27
2022-10-18T08:08:08.011Z,13.13
2022-10-18T08:10:49.614Z,11.95
2022-10-18T08:12:53.961Z,11.80
2022-10-18T08:15:13.390Z,12.15
2022-10-18T08:17:43.493Z,11.65
2022-10-18T08:20:11.484Z,11.88
2022-10-18T08:22:19.151Z,12.13
2022-10-18T08:24:24.490Z,13.25
2022-10-18T08:26:26.794Z,12.45
2022-10-18T08:28:29.213Z,12.07
2022-10-18T08:32:34.128Z,11.30
2022-10-18T08:36:38.772Z,11.32
2022-10-18T08:38:42.642Z,11.13
2022-10-18T08:40:50.464Z,11.13
2022-10-18T08:43:21.986Z,9.68
2022-10-18T08:45:40.833Z,11.00
2022-10-18T08:47:49.525Z,10.65
2022-10-18T08:49:56.891Z,10.75
2022-10-18T08:52:01.960Z,10.82
2022-10-18T08:54:16.429Z,11.32
2022-10-18T08:56:24.318Z,10.32
2022-10-18T08:58:30.980Z,10.90
2022-10-18T09:00:40.852Z,11.98
2022-10-18T09:03:17.666Z,9.77
2022-10-18T09:05:32.035Z,11.38
2022-10-18T09:07:51.805Z,10.05
2022-10-18T09:10:19.925Z,10.35
2022-10-18T09:12:27.605Z,9.35
2022-10-18T09:14:35.859Z,9.95
2022-10-18T09:16:55.863Z,10.15
2022-10-18T09:19:18.454Z,9.07
2022-10-18T09:23:48.737Z,10.50
2022-10-18T09:26:01.605Z,7.93
2022-10-18T09:28:27.308Z,8.48
2022-10-18T09:30:44.759Z,7.68
2022-10-18T09:32:49.851Z,7.25
2022-10-18T09:35:15.174Z,7.65
2022-10-18T09:37:20.235Z,7.35
2022-10-18T09:39:28.642Z,6.18
2022-10-18T09:41:39.922Z,7.53
2022-10-18T09:44:03.488Z,7.03
2022-10-18T09:46:07.199Z,7.68
2022-10-18T09:48:21.321Z,7.20
2022-10-18T09:50:38.426Z,5.95
2022-10-18T09:53:00.189Z,6.45
2022-10-18T09:55:13.079Z,7.50
2022-10-18T09:57:27.105Z,6.90
2022-10-18T09:59:47.459Z,6.22
2022-10-18T10:01:52.033Z,6.20
2022-10-18T10:06:29.633Z,6.10
2022-10-18T10:08:35.495Z,7.20
2022-10-18T10:10:45.993Z,7.38
2022-10-18T10:12:49.482Z,6.80
2022-10-18T10:14:52.272Z,8.13
2022-10-18T10:16:56.325Z,7.28
2022-10-18T10:18:58.494Z,9.13
2022-10-18T10:21:13.860Z,7.88
2022-10-18T10:23:26.971Z,9.35
2022-10-18T10:25:34.947Z,9.00
2022-10-18T10:27:43.794Z,9.73
2022-10-18T10:29:47.063Z,9.57
2022-10-18T10:32:03.283Z,10.02
2022-10-18T10:34:07.008Z,11.80
2022-10-18T10:36:21.387Z,10.40
2022-10-18T10:38:26.080Z,11.88
2022-10-18T10:40:31.494Z,12.05
2022-10-18T10:42:38.089Z,12.18
2022-10-18T10:44:57.175Z,11.77
2022-10-18T10:46:59.959Z,12.63
2022-10-18T10:51:40.479Z,12.90
2022-10-18T10:53:47.851Z,13.73
2022-10-18T10:55:54.492Z,13.02
2022-10-18T10:57:57.066Z,13.60
2022-10-18T11:00:00.208Z,14.30
2022-10-18T11:02:29.334Z,13.43
2022-10-18T11:04:32.174Z,13.95
2022-10-18T11:06:42.427Z,15.43
2022-10-18T11:13:24.182Z,14.60
2022-10-18T11:15:53.629Z,14.27
2022-10-18T11:18:17.536Z,14.77
2022-10-18T11:20:38.078Z,15.20
2022-10-18T11:23:02.166Z,14.48
2022-10-18T11:25:06.293Z,14.90
2022-10-18T11:27:37.691Z,15.55
2022-10-18T11:30:02.130Z,15.50
2022-10-18T11:32:13.624Z,14.35
2022-10-18T11:34:31.464Z,15.27
2022-10-18T11:37:22.907Z,15.35
2022-10-18T11:39:41.535Z,14.20
2022-10-18T11:44:02.582Z,14.32
2022-10-18T11:46:31.321Z,13.35
2022-10-18T11:48:45.722Z,14.20
2022-10-18T11:51:02.815Z,14.18
2022-10-18T11:53:26.896Z,12.88
2022-10-18T11:55:32.053Z,12.80
2022-10-18T11:58:00.518Z,12.70
2022-10-18T12:03:03.601Z,12.45
2022-10-18T12:05:24.458Z,13.07
2022-10-18T12:07:33.245Z,12.93
2022-10-18T12:09:41.128Z,12.18
2022-10-18T12:12:01.690Z,12.95
2022-10-18T12:14:28.382Z,12.90
2022-10-18T12:16:50.987Z,11.48
2022-10-18T12:19:02.887Z,12.25
2022-10-18T12:21:06.850Z,10.93
2022-10-18T12:23:20.867Z,10.95
2022-10-18T12:25:23.710Z,11.48
2022-10-18T12:27:47.200Z,12.35
2022-10-18T12:30:03.872Z,10.80
2022-10-18T12:32:11.518Z,10.95
2022-10-18T12:34:22.798Z,9.85
2022-10-18T12:36:57.200Z,11.27
2022-10-18T12:39:03.280Z,9.85
2022-10-18T12:41:08.939Z,9.75
2022-10-18T12:43:18.560Z,9.43
2022-10-18T12:45:35.081Z,9.90
2022-10-18T12:47:41.619Z,9.38
2022-10-18T12:49:44.631Z,9.85
2022-10-18T12:51:59.915Z,9.50
2022-10-18T12:54:02.994Z,9.60
2022-10-18T12:56:29.770Z,9.35
2022-10-18T12:58:33.078Z,8.70
2022-10-18T13:00:35.258Z,9.10
2022-10-18T13:02:39.841Z,9.02
2022-10-18T13:04:42.398Z,8.70
2022-10-18T13:09:21.370Z,9.10
2022-10-18T13:11:33.441Z,8.85
2022-10-18T13:16:24.471Z,8.43
2022-10-18T13:18:43.386Z,8.88
2022-10-18T13:21:33.766Z,8.18
2022-10-18T13:23:57.650Z,10.02
2022-10-18T13:26:32.121Z,8.43
2022-10-18T13:29:07.434Z,9.65
2022-10-18T13:31:34.706Z,8.85
2022-10-18T13:33:39.534Z,9.10
2022-10-18T13:35:55.120Z,8.65
2022-10-18T13:38:00.377Z,9.05
2022-10-18T13:40:25.559Z,9.98
2022-10-18T13:42:33.596Z,9.73
2022-10-18T13:44:43.735Z,8.85
2022-10-18T13:46:46.006Z,10.15
2022-10-18T13:48:53.811Z,9.63
2022-10-18T13:51:21.488Z,9.95
2022-10-18T13:53:45.450Z,9.07
2022-10-18T13:55:49.822Z,9.63
2022-10-18T13:58:19.046Z,9.60
2022-10-18T14:00:44.746Z,10.18
2022-10-18T14:03:31.682Z,9.48
2022-10-18T14:06:09.965Z,8.88
2022-10-18T14:08:49.394Z,9.25
2022-10-18T14:11:04.303Z,9.52
2022-10-18T14:13:18.887Z,9.68
2022-10-18T14:15:29.074Z,8.07
2022-10-18T14:18:13.498Z,5.50
2022-10-18T14:20:55.341Z,4.97
2022-10-18T14:23:29.426Z,4.05
2022-10-18T14:25:36.036Z,4.22
2022-10-18T14:28:16.757Z,2.95
2022-10-18T14:30:28.118Z,3.10
2022-10-18T14:32:33.541Z,2.95
2022-10-18T14:34:48.081Z,2.08
2022-10-18T14:37:01.570Z,1.98
2022-10-18T14:39:22.823Z,1.80
2022-10-18T14:42:08.768Z,2.00
2022-10-18T14:44:29.317Z,1.70
2022-10-18T14:46:57.049Z,1.48
2022-10-18T14:49:16.052Z,1.60
2022-10-18T14:51:32.952Z,1.40
2022-10-18T14:53:44.418Z,1.42
2022-10-18T14:56:29.134Z,1.42
2022-10-18T14:58:41.717Z,1.27
2022-10-18T15:00:50.317Z,1.50
2022-10-18T15:03:12.425Z,1.60
2022-10-18T15:05:20.682Z,1.35
2022-10-18T15:07:38.773Z,1.17
2022-10-18T15:09:44.188Z,1.20
2022-10-18T15:11:55.225Z,1.10
2022-10-18T15:14:19.579Z,1.23
2022-10-18T15:16:38.887Z,1.13
2022-10-18T15:18:41.252Z,0.98
2022-10-18T15:20:45.944Z,1.00
2022-10-18T15:22:48.819Z,0.93
2022-10-18T15:25:06.376Z,0.90
2022-10-18T15:27:24.419Z,0.70
2022-10-18T15:29:32.518Z,0.77
2022-10-18T15:31:37.766Z,0.70
2022-10-18T15:33:39.840Z,0.80
2022-10-18T15:35:42.630Z,0.60
2022-10-18T15:37:47.249Z,0.75
2022-10-18T15:40:29.282Z,0.70
2022-10-18T15:42:36.718Z,0.80
2022-10-18T15:44:51.612Z,0.70
2022-10-18T15:47:12.456Z,0.50
2022-10-18T15:49:45.595Z,0.43
2022-10-18T15:51:50.031Z,0.77
2022-10-18T15:53:56.518Z,0.70
2022-10-18T15:56:22.614Z,0.52
2022-10-18T15:58:27.165Z,0.70
2022-10-18T16:00:29.531Z,0.73
2022-10-18T16:04:39.254Z,0.60
2022-10-18T16:06:43.949Z,0.80
2022-10-18T16:09:18.339Z,0.75
2022-10-18T16:11:24.007Z,0.70
2022-10-18T16:13:29.662Z,0.60
2022-10-18T16:15:33.223Z,0.68
2022-10-18T16:17:35.616Z,0.55
2022-10-18T16:19:40.203Z,0.80
2022-10-18T16:21:44.688Z,0.70
2022-10-18T16:23:48.312Z,0.75
2022-10-18T16:25:51.546Z,0.70
2022-10-18T16:27:53.761Z,0.80
2022-10-18T16:29:56.024Z,0.88
2022-10-18T16:31:58.604Z,1.00
2022-10-18T16:34:04.325Z,0.60
2022-10-18T16:36:14.284Z,0.90
2022-10-18T16:38:34.126Z,0.75
2022-10-18T16:40:40.362Z,0.90
2022-10-18T16:42:48.086Z,0.60
2022-10-18T16:44:50.258Z,0.70
2022-10-18T16:46:54.183Z,1.25
2022-10-18T16:48:58.673Z,0.70
2022-10-18T16:51:01.352Z,0.82
2022-10-18T16:55:06.133Z,0.87
2022-10-18T16:57:13.605Z,0.50
2022-10-18T16:59:29.256Z,0.47
2022-10-18T17:01:31.585Z,0.70
2022-10-18T17:03:34.223Z,0.93
2022-10-18T17:05:36.616Z,0.70
2022-10-18T17:09:41.406Z,0.90
2022-10-18T17:11:43.715Z,0.90
2022-10-18T17:15:50.760Z,0.95
2022-10-18T17:17:53.161Z,1.00
2022-10-18T17:19:56.194Z,0.98
2022-10-18T17:22:02.397Z,0.90
2022-10-18T17:24:06.288Z,1.23
2022-10-18T17:26:28.533Z,1.20
2022-10-18T17:28:32.265Z,1.23
2022-10-18T17:30:38.551Z,1.00
2022-10-18T17:32:44.731Z,1.10
2022-10-18T17:34:48.022Z,1.02
2022-10-18T17:38:53.855Z,1.20
2022-10-18T17:40:57.040Z,1.08
2022-10-18T17:42:59.855Z,1.10
2022-10-18T17:45:04.632Z,1.10
2022-10-18T17:47:11.060Z,0.75
2022-10-18T17:49:14.618Z,0.77
2022-10-18T17:51:17.656Z,0.70
2022-10-18T17:53:23.103Z,0.93
2022-10-18T17:55:25.434Z,0.90
2022-10-18T17:57:27.840Z,1.00
2022-10-18T18:01:32.180Z,0.83
2022-10-18T18:03:34.568Z,0.80
2022-10-18T18:05:37.021Z,0.80
2022-10-18T18:09:41.996Z,0.80
2022-10-18T18:15:50.560Z,0.82
2022-10-18T18:17:57.196Z,1.20
2022-10-18T18:20:03.038Z,1.10
2022-10-18T18:22:05.884Z,1.10
2022-10-18T18:24:10.255Z,1.02
2022-10-18T18:26:14.283Z,1.10
2022-10-18T18:28:16.291Z,1.08
2022-10-18T18:30:18.605Z,1.00
2022-10-18T18:34:22.896Z,1.02
2022-10-18T18:38:28.656Z,1.30
2022-10-18T18:40:30.810Z,1.08
2022-10-18T18:42:33.227Z,1.13
2022-10-18T18:44:38.252Z,0.90
2022-10-18T18:46:40.339Z,1.30
2022-10-18T18:48:43.103Z,1.40
2022-10-18T18:50:50.176Z,1.15
2022-10-18T18:52:52.345Z,1.05
2022-10-18T18:54:54.536Z,1.10
2022-10-18T18:56:57.975Z,1.00
2022-10-18T18:59:00.565Z,0.95
2022-10-18T19:01:19.942Z,0.98
2022-10-18T19:03:22.217Z,0.98
2022-10-18T19:05:25.609Z,0.98
2022-10-18T19:07:27.834Z,1.05
2022-10-18T19:09:29.971Z,0.77
2022-10-18T19:11:35.996Z,1.20
2022-10-18T19:13:38.858Z,1.38
2022-10-18T19:15:40.936Z,1.25
2022-10-18T19:17:43.452Z,1.33
2022-10-18T19:19:45.743Z,1.00
2022-10-18T19:21:59.541Z,1.45
2022-10-18T19:24:02.965Z,1.40
2022-10-18T19:26:13.695Z,1.38
2022-10-18T19:28:15.807Z,1.70
2022-10-18T19:30:20.150Z,1.80
2022-10-18T19:32:22.436Z,1.77
2022-10-18T19:40:32.369Z,1.73
2022-10-18T19:42:38.025Z,1.52
2022-10-18T19:44:41.202Z,1.00
2022-10-18T19:46:43.536Z,1.52
2022-10-18T19:48:45.614Z,1.30
2022-10-18T19:50:50.725Z,1.55
2022-10-18T19:52:52.941Z,1.25
2022-10-18T19:54:55.074Z,1.08
2022-10-18T19:56:57.175Z,1.30
2022-10-18T20:01:05.483Z,1.13
2022-10-18T20:03:08.575Z,1.30
2022-10-18T20:05:13.994Z,1.23
2022-10-18T20:07:16.115Z,1.23
2022-10-18T20:09:30.263Z,1.30
2022-10-18T20:11:37.824Z,1.30
2022-10-18T20:14:10.815Z,1.17
2022-10-18T20:16:30.834Z,1.40
2022-10-18T20:18:43.921Z,1.33
2022-10-18T20:20:56.066Z,1.55
2022-10-18T20:22:58.107Z,1.70
2022-10-18T20:25:00.273Z,1.65
2022-10-18T20:27:02.378Z,1.52
2022-10-18T20:29:04.836Z,1.73
2022-10-18T20:31:18.483Z,1.70
2022-10-18T20:33:20.567Z,1.52
2022-10-18T20:35:22.736Z,1.27
2022-10-18T20:37:24.929Z,2.13
2022-10-18T20:41:34.895Z,1.40
2022-10-18T20:43:37.092Z,1.70
2022-10-18T20:45:39.326Z,1.50
2022-10-18T20:49:43.436Z,1.05
2022-10-18T20:51:45.957Z,1.10
2022-10-18T20:53:48.761Z,1.10
2022-10-18T20:55:50.995Z,1.58
2022-10-18T20:57:53.258Z,1.73
2022-10-18T20:59:55.403Z,1.58
2022-10-18T21:04:05.042Z,1.85
2022-10-18T21:06:19.419Z,1.30
2022-10-18T21:08:21.540Z,1.45
2022-10-18T21:12:28.739Z,1.45
2022-10-18T21:14:31.344Z,1.58
2022-10-18T21:16:35.781Z,1.40
2022-10-18T21:18:40.714Z,1.00
2022-10-18T21:20:43.107Z,1.60
2022-10-18T21:22:46.010Z,1.10
2022-10-18T21:24:50.047Z,1.10
2022-10-18T21:26:52.852Z,1.08
2022-10-18T21:28:58.820Z,1.23
2022-10-18T21:31:12.926Z,1.20
2022-10-18T21:33:15.207Z,1.38
2022-10-18T21:35:17.508Z,1.17
2022-10-18T21:37:19.663Z,1.15
2022-10-18T21:41:31.875Z,1.10
2022-10-18T21:43:33.987Z,1.42
2022-10-18T21:45:36.158Z,1.35
2022-10-18T21:47:38.445Z,0.90
2022-10-18T21:49:40.561Z,1.05
2022-10-18T21:51:43.251Z,1.20
2022-10-18T21:53:47.921Z,1.42
2022-10-18T21:55:49.989Z,1.58
2022-10-18T21:57:52.096Z,1.38
2022-10-18T21:59:56.326Z,1.48
2022-10-18T22:02:01.381Z,1.65
2022-10-18T22:04:07.239Z,1.40
2022-10-18T22:06:15.376Z,1.65
2022-10-18T22:08:17.494Z,1.50
2022-10-18T22:10:19.796Z,1.42
2022-10-18T22:14:24.201Z,1.77
2022-10-18T22:16:26.681Z,1.20
2022-10-18T22:20:31.243Z,1.80
2022-10-18T22:22:33.906Z,1.67
2022-10-18T22:24:39.276Z,1.30
2022-10-18T22:26:43.259Z,1.60
2022-10-18T22:28:46.423Z,1.77
2022-10-18T22:30:48.700Z,1.80
2022-10-18T22:34:53.493Z,1.50
2022-10-18T22:36:56.185Z,1.90
2022-10-18T22:38:58.635Z,2.00
2022-10-18T22:41:08.458Z,1.90
2022-10-18T22:43:11.305Z,1.63
2022-10-18T22:45:13.534Z,1.67
2022-10-18T22:49:17.772Z,2.20
2022-10-18T22:51:21.033Z,1.35
2022-10-18T22:53:23.355Z,1.60
2022-10-18T22:57:29.659Z,1.90
2022-10-18T22:59:31.899Z,2.33
2022-10-18T23:01:34.890Z,1.67
2022-10-18T23:03:37.640Z,1.75
2022-10-18T23:05:41.563Z,1.92
2022-10-18T23:07:48.982Z,1.70
2022-10-18T23:09:51.342Z,1.60
2022-10-18T23:13:55.666Z,1.73
2022-10-18T23:16:04.654Z,2.00
2022-10-18T23:18:07.642Z,1.65
2022-10-18T23:20:10.144Z,1.52
2022-10-18T23:22:15.039Z,1.55
2022-10-18T23:24:17.103Z,1.60
2022-10-18T23:26:22.526Z,1.65
2022-10-18T23:28:25.300Z,1.58
2022-10-18T23:30:27.523Z,1.67
2022-10-18T23:32:29.703Z,1.98
2022-10-18T23:34:32.079Z,1.92
2022-10-18T23:38:38.864Z,1.52
2022-10-18T23:40:41.764Z,1.80
2022-10-18T23:42:43.777Z,1.63
2022-10-18T23:44:46.087Z,1.35
2022-10-18T23:48:50.840Z,2.60
2022-10-18T23:50:52.955Z,2.05
2022-10-18T23:52:55.075Z,1.80
2022-10-18T23:54:57.183Z,2.00
2022-10-18T23:56:59.479Z,1.42
2022-10-18T23:59:01.471Z,1.85
